Onaway, Idaho
Current Conditions -  °F | °C
As of 8:53 PM on Thursday 27 Nov 2014 (Local Time) from KPUW Reporting Station
Overcast Overcast  
Wind Chill: 52°   Ceiling: 4800
Heat Index: 52°   Visibility: 10mi
Dew Point: 43°   Wind: 7mph
Humidity: 71%   Direction: 220°SW
Pressure: 29.83"   Gusts: NA
Location:  46.9986°N, 116.937°W
Report Text: KPUW 280453Z AUTO 22006KT 10SM OVC048 11/06 A2983 RMK AO2 SLP102 T01110061
Loading
Personal Weather Stations






























Interactive Weather Map New forecast layout! Learn more

10-Day Weather Forecast

Advertisements
Track Severe Weather on mobile